sensor_id;sensor_type;location;lat;lon;timestamp;P1;durP1;ratioP1;P2;durP2;ratioP2
23496;SDS011;11925;48.122;11.560;2023-03-07T00:00:04;14.30;;;8.57;;
23496;SDS011;11925;48.122;11.560;2023-03-07T00:02:34;14.60;;;8.50;;
23496;SDS011;11925;48.122;11.560;2023-03-07T00:05:03;14.50;;;8.88;;
23496;SDS011;11925;48.122;11.560;2023-03-07T00:07:32;17.58;;;9.38;;
23496;SDS011;11925;48.122;11.560;2023-03-07T00:10:00;16.92;;;9.55;;
23496;SDS011;11925;48.122;11.560;2023-03-07T00:12:28;14.38;;;8.73;;
23496;SDS011;11925;48.122;11.560;2023-03-07T00:14:57;15.68;;;9.38;;
23496;SDS011;11925;48.122;11.560;2023-03-07T00:17:26;15.45;;;8.85;;
23496;SDS011;11925;48.122;11.560;2023-03-07T00:19:55;16.98;;;9.27;;
23496;SDS011;11925;48.122;11.560;2023-03-07T00:22:23;14.35;;;8.95;;
23496;SDS011;11925;48.122;11.560;2023-03-07T00:24:52;17.38;;;8.68;;
23496;SDS011;11925;48.122;11.560;2023-03-07T00:27:20;16.95;;;9.32;;
23496;SDS011;11925;48.122;11.560;2023-03-07T00:29:48;16.30;;;9.15;;
23496;SDS011;11925;48.122;11.560;2023-03-07T00:32:16;14.95;;;9.23;;
23496;SDS011;11925;48.122;11.560;2023-03-07T00:34:46;15.80;;;9.55;;
23496;SDS011;11925;48.122;11.560;2023-03-07T00:37:15;15.40;;;8.65;;
23496;SDS011;11925;48.122;11.560;2023-03-07T00:39:43;16.10;;;9.15;;
23496;SDS011;11925;48.122;11.560;2023-03-07T00:42:11;13.95;;;8.73;;
23496;SDS011;11925;48.122;11.560;2023-03-07T00:44:40;14.45;;;8.02;;
23496;SDS011;11925;48.122;11.560;2023-03-07T00:47:08;14.40;;;8.75;;
23496;SDS011;11925;48.122;11.560;2023-03-07T00:49:36;16.10;;;9.25;;
23496;SDS011;11925;48.122;11.560;2023-03-07T00:52:07;17.67;;;8.98;;
23496;SDS011;11925;48.122;11.560;2023-03-07T00:54:35;16.38;;;9.98;;
23496;SDS011;11925;48.122;11.560;2023-03-07T00:57:04;16.15;;;8.77;;
23496;SDS011;11925;48.122;11.560;2023-03-07T00:59:32;14.15;;;8.82;;
23496;SDS011;11925;48.122;11.560;2023-03-07T01:02:00;15.68;;;8.85;;
23496;SDS011;11925;48.122;11.560;2023-03-07T01:04:29;14.85;;;8.70;;
23496;SDS011;11925;48.122;11.560;2023-03-07T01:06:57;13.63;;;8.63;;
23496;SDS011;11925;48.122;11.560;2023-03-07T01:09:27;15.85;;;8.85;;
23496;SDS011;11925;48.122;11.560;2023-03-07T01:11:55;16.02;;;8.98;;
23496;SDS011;11925;48.122;11.560;2023-03-07T01:14:24;14.38;;;8.75;;
23496;SDS011;11925;48.122;11.560;2023-03-07T01:16:52;15.57;;;9.00;;
23496;SDS011;11925;48.122;11.560;2023-03-07T01:19:21;15.52;;;9.55;;
23496;SDS011;11925;48.122;11.560;2023-03-07T01:21:51;15.75;;;9.07;;
23496;SDS011;11925;48.122;11.560;2023-03-07T01:24:20;15.77;;;8.38;;
23496;SDS011;11925;48.122;11.560;2023-03-07T01:26:50;15.82;;;8.63;;
23496;SDS011;11925;48.122;11.560;2023-03-07T01:29:21;12.63;;;7.97;;
23496;SDS011;11925;48.122;11.560;2023-03-07T01:31:49;13.40;;;8.13;;
23496;SDS011;11925;48.122;11.560;2023-03-07T01:34:18;14.48;;;8.20;;
23496;SDS011;11925;48.122;11.560;2023-03-07T01:36:49;14.02;;;8.20;;
23496;SDS011;11925;48.122;11.560;2023-03-07T01:39:17;11.43;;;7.50;;
23496;SDS011;11925;48.122;11.560;2023-03-07T01:41:55;15.30;;;8.45;;
23496;SDS011;11925;48.122;11.560;2023-03-07T01:44:26;14.43;;;8.73;;
23496;SDS011;11925;48.122;11.560;2023-03-07T01:46:55;15.40;;;8.45;;
23496;SDS011;11925;48.122;11.560;2023-03-07T01:49:45;13.02;;;8.63;;
23496;SDS011;11925;48.122;11.560;2023-03-07T01:52:16;12.75;;;7.25;;
23496;SDS011;11925;48.122;11.560;2023-03-07T01:54:51;13.23;;;7.22;;
23496;SDS011;11925;48.122;11.560;2023-03-07T01:57:27;12.75;;;7.53;;
23496;SDS011;11925;48.122;11.560;2023-03-07T01:59:59;10.88;;;7.10;;
23496;SDS011;11925;48.122;11.560;2023-03-07T02:02:38;13.05;;;7.82;;
23496;SDS011;11925;48.122;11.560;2023-03-07T02:05:16;13.63;;;7.97;;
23496;SDS011;11925;48.122;11.560;2023-03-07T02:07:49;13.02;;;7.82;;
23496;SDS011;11925;48.122;11.560;2023-03-07T02:10:23;12.45;;;7.70;;
23496;SDS011;11925;48.122;11.560;2023-03-07T02:12:53;12.35;;;6.88;;
23496;SDS011;11925;48.122;11.560;2023-03-07T02:15:22;13.23;;;7.88;;
23496;SDS011;11925;48.122;11.560;2023-03-07T02:17:50;13.63;;;7.65;;
23496;SDS011;11925;48.122;11.560;2023-03-07T02:20:25;11.45;;;7.15;;
23496;SDS011;11925;48.122;11.560;2023-03-07T02:23:01;12.73;;;7.10;;
23496;SDS011;11925;48.122;11.560;2023-03-07T02:25:32;11.93;;;7.10;;
23496;SDS011;11925;48.122;11.560;2023-03-07T02:28:09;12.43;;;7.68;;
23496;SDS011;11925;48.122;11.560;2023-03-07T02:30:51;12.57;;;7.13;;
23496;SDS011;11925;48.122;11.560;2023-03-07T02:33:22;13.57;;;7.07;;
23496;SDS011;11925;48.122;11.560;2023-03-07T02:36:01;13.23;;;7.97;;
23496;SDS011;11925;48.122;11.560;2023-03-07T02:38:33;12.30;;;7.40;;
23496;SDS011;11925;48.122;11.560;2023-03-07T02:41:06;12.55;;;7.32;;
23496;SDS011;11925;48.122;11.560;2023-03-07T02:43:39;13.27;;;8.20;;
23496;SDS011;11925;48.122;11.560;2023-03-07T02:46:08;12.05;;;6.88;;
23496;SDS011;11925;48.122;11.560;2023-03-07T02:48:37;12.88;;;7.53;;
23496;SDS011;11925;48.122;11.560;2023-03-07T02:51:05;13.70;;;7.57;;
23496;SDS011;11925;48.122;11.560;2023-03-07T02:53:33;11.73;;;6.68;;
23496;SDS011;11925;48.122;11.560;2023-03-07T02:56:02;12.80;;;7.25;;
23496;SDS011;11925;48.122;11.560;2023-03-07T02:58:31;12.32;;;6.60;;
23496;SDS011;11925;48.122;11.560;2023-03-07T03:01:01;12.45;;;6.78;;
23496;SDS011;11925;48.122;11.560;2023-03-07T03:03:29;11.68;;;6.90;;
23496;SDS011;11925;48.122;11.560;2023-03-07T03:06:00;11.68;;;7.40;;
23496;SDS011;11925;48.122;11.560;2023-03-07T03:08:28;12.10;;;6.80;;
23496;SDS011;11925;48.122;11.560;2023-03-07T03:10:57;13.48;;;7.57;;
23496;SDS011;11925;48.122;11.560;2023-03-07T03:13:26;11.85;;;6.97;;
23496;SDS011;11925;48.122;11.560;2023-03-07T03:15:56;12.60;;;6.97;;
23496;SDS011;11925;48.122;11.560;2023-03-07T03:18:27;11.40;;;6.82;;
23496;SDS011;11925;48.122;11.560;2023-03-07T03:20:57;11.82;;;6.78;;
23496;SDS011;11925;48.122;11.560;2023-03-07T03:23:26;12.68;;;6.97;;
23496;SDS011;11925;48.122;11.560;2023-03-07T03:25:56;10.88;;;6.75;;
23496;SDS011;11925;48.122;11.560;2023-03-07T03:28:27;11.02;;;6.25;;
23496;SDS011;11925;48.122;11.560;2023-03-07T03:30:57;12.02;;;6.65;;
23496;SDS011;11925;48.122;11.560;2023-03-07T03:33:28;13.18;;;6.68;;
23496;SDS011;11925;48.122;11.560;2023-03-07T03:35:57;13.63;;;7.30;;
23496;SDS011;11925;48.122;11.560;2023-03-07T03:38:27;15.45;;;7.13;;
23496;SDS011;11925;48.122;11.560;2023-03-07T03:40:56;12.00;;;6.63;;
23496;SDS011;11925;48.122;11.560;2023-03-07T03:43:24;11.32;;;6.68;;
23496;SDS011;11925;48.122;11.560;2023-03-07T03:45:53;11.95;;;7.47;;
23496;SDS011;11925;48.122;11.560;2023-03-07T03:48:23;10.03;;;6.03;;
23496;SDS011;11925;48.122;11.560;2023-03-07T03:51:00;12.40;;;7.38;;
23496;SDS011;11925;48.122;11.560;2023-03-07T03:53:30;11.68;;;7.30;;
23496;SDS011;11925;48.122;11.560;2023-03-07T03:56:00;12.48;;;7.43;;
23496;SDS011;11925;48.122;11.560;2023-03-07T03:58:29;9.63;;;6.15;;
23496;SDS011;11925;48.122;11.560;2023-03-07T04:00:59;13.70;;;6.78;;
23496;SDS011;11925;48.122;11.560;2023-03-07T04:03:31;12.10;;;6.93;;
23496;SDS011;11925;48.122;11.560;2023-03-07T04:06:03;14.93;;;7.10;;
23496;SDS011;11925;48.122;11.560;2023-03-07T04:08:34;12.80;;;7.00;;
23496;SDS011;11925;48.122;11.560;2023-03-07T04:11:03;11.40;;;6.72;;
23496;SDS011;11925;48.122;11.560;2023-03-07T04:13:32;11.77;;;6.88;;
23496;SDS011;11925;48.122;11.560;2023-03-07T04:16:01;13.48;;;6.53;;
23496;SDS011;11925;48.122;11.560;2023-03-07T04:18:30;12.10;;;6.82;;
23496;SDS011;11925;48.122;11.560;2023-03-07T04:20:59;14.75;;;7.57;;
23496;SDS011;11925;48.122;11.560;2023-03-07T04:23:29;11.90;;;6.78;;
23496;SDS011;11925;48.122;11.560;2023-03-07T04:25:58;10.02;;;6.40;;
23496;SDS011;11925;48.122;11.560;2023-03-07T04:28:30;12.55;;;7.28;;
23496;SDS011;11925;48.122;11.560;2023-03-07T04:31:40;11.25;;;6.40;;
23496;SDS011;11925;48.122;11.560;2023-03-07T04:34:09;11.13;;;6.25;;
23496;SDS011;11925;48.122;11.560;2023-03-07T04:36:38;10.85;;;7.10;;
23496;SDS011;11925;48.122;11.560;2023-03-07T04:39:08;12.20;;;7.00;;
23496;SDS011;11925;48.122;11.560;2023-03-07T04:41:36;12.25;;;7.05;;
23496;SDS011;11925;48.122;11.560;2023-03-07T04:44:10;11.43;;;6.78;;
23496;SDS011;11925;48.122;11.560;2023-03-07T04:46:39;12.43;;;6.95;;
23496;SDS011;11925;48.122;11.560;2023-03-07T04:49:08;12.05;;;7.10;;
23496;SDS011;11925;48.122;11.560;2023-03-07T04:51:38;11.77;;;6.88;;
23496;SDS011;11925;48.122;11.560;2023-03-07T04:54:12;12.00;;;6.75;;
23496;SDS011;11925;48.122;11.560;2023-03-07T04:56:41;11.15;;;6.90;;
23496;SDS011;11925;48.122;11.560;2023-03-07T04:59:10;12.23;;;7.13;;
23496;SDS011;11925;48.122;11.560;2023-03-07T05:01:39;12.10;;;7.10;;
23496;SDS011;11925;48.122;11.560;2023-03-07T05:04:08;13.85;;;7.15;;
23496;SDS011;11925;48.122;11.560;2023-03-07T05:06:37;12.43;;;6.78;;
23496;SDS011;11925;48.122;11.560;2023-03-07T05:09:06;13.43;;;7.28;;
23496;SDS011;11925;48.122;11.560;2023-03-07T05:11:36;12.88;;;7.45;;
23496;SDS011;11925;48.122;11.560;2023-03-07T05:14:06;15.00;;;8.40;;
23496;SDS011;11925;48.122;11.560;2023-03-07T05:16:34;14.95;;;8.30;;
23496;SDS011;11925;48.122;11.560;2023-03-07T05:19:03;13.20;;;7.70;;
23496;SDS011;11925;48.122;11.560;2023-03-07T05:21:32;14.90;;;8.27;;
23496;SDS011;11925;48.122;11.560;2023-03-07T05:24:01;14.70;;;8.30;;
23496;SDS011;11925;48.122;11.560;2023-03-07T05:26:31;13.57;;;7.55;;
23496;SDS011;11925;48.122;11.560;2023-03-07T05:29:01;14.63;;;8.52;;
23496;SDS011;11925;48.122;11.560;2023-03-07T05:31:30;12.57;;;7.88;;
23496;SDS011;11925;48.122;11.560;2023-03-07T05:33:58;13.85;;;8.32;;
23496;SDS011;11925;48.122;11.560;2023-03-07T05:36:27;14.77;;;8.52;;
23496;SDS011;11925;48.122;11.560;2023-03-07T05:38:55;15.98;;;8.65;;
23496;SDS011;11925;48.122;11.560;2023-03-07T05:41:24;13.98;;;7.95;;
23496;SDS011;11925;48.122;11.560;2023-03-07T05:43:53;13.23;;;8.27;;
23496;SDS011;11925;48.122;11.560;2023-03-07T05:46:23;15.15;;;8.85;;
23496;SDS011;11925;48.122;11.560;2023-03-07T05:48:51;13.45;;;7.95;;
23496;SDS011;11925;48.122;11.560;2023-03-07T05:51:20;14.13;;;8.07;;
23496;SDS011;11925;48.122;11.560;2023-03-07T05:53:49;15.95;;;8.70;;
23496;SDS011;11925;48.122;11.560;2023-03-07T05:56:17;14.63;;;8.93;;
23496;SDS011;11925;48.122;11.560;2023-03-07T05:58:46;17.17;;;8.77;;
23496;SDS011;11925;48.122;11.560;2023-03-07T06:01:14;13.45;;;8.32;;
23496;SDS011;11925;48.122;11.560;2023-03-07T06:03:44;14.52;;;8.27;;
23496;SDS011;11925;48.122;11.560;2023-03-07T06:06:13;14.13;;;8.20;;
23496;SDS011;11925;48.122;11.560;2023-03-07T06:08:42;14.52;;;8.27;;
23496;SDS011;11925;48.122;11.560;2023-03-07T06:11:10;16.25;;;8.98;;
23496;SDS011;11925;48.122;11.560;2023-03-07T06:13:39;13.88;;;7.82;;
23496;SDS011;11925;48.122;11.560;2023-03-07T06:16:08;15.43;;;8.52;;
23496;SDS011;11925;48.122;11.560;2023-03-07T06:18:38;14.77;;;8.63;;
23496;SDS011;11925;48.122;11.560;2023-03-07T06:21:09;13.70;;;8.43;;
23496;SDS011;11925;48.122;11.560;2023-03-07T06:23:43;13.40;;;8.18;;
23496;SDS011;11925;48.122;11.560;2023-03-07T06:26:16;11.32;;;8.10;;
23496;SDS011;11925;48.122;11.560;2023-03-07T06:28:48;17.70;;;8.88;;
23496;SDS011;11925;48.122;11.560;2023-03-07T06:31:17;16.67;;;8.48;;
23496;SDS011;11925;48.122;11.560;2023-03-07T06:33:46;14.05;;;8.43;;
23496;SDS011;11925;48.122;11.560;2023-03-07T06:36:18;13.55;;;8.85;;
23496;SDS011;11925;48.122;11.560;2023-03-07T06:38:54;14.13;;;8.88;;
23496;SDS011;11925;48.122;11.560;2023-03-07T06:41:23;18.00;;;8.90;;
23496;SDS011;11925;48.122;11.560;2023-03-07T06:43:54;15.65;;;8.77;;
23496;SDS011;11925;48.122;11.560;2023-03-07T06:46:29;19.48;;;9.05;;
23496;SDS011;11925;48.122;11.560;2023-03-07T06:49:00;16.05;;;8.50;;
23496;SDS011;11925;48.122;11.560;2023-03-07T06:51:30;16.55;;;9.52;;
23496;SDS011;11925;48.122;11.560;2023-03-07T06:53:59;15.38;;;8.88;;
23496;SDS011;11925;48.122;11.560;2023-03-07T06:56:28;15.70;;;8.77;;
23496;SDS011;11925;48.122;11.560;2023-03-07T06:58:57;16.02;;;8.85;;
23496;SDS011;11925;48.122;11.560;2023-03-07T07:01:26;16.88;;;9.73;;
23496;SDS011;11925;48.122;11.560;2023-03-07T07:03:56;17.85;;;10.07;;
23496;SDS011;11925;48.122;11.560;2023-03-07T07:06:26;16.13;;;8.88;;
23496;SDS011;11925;48.122;11.560;2023-03-07T07:08:56;16.45;;;9.10;;
23496;SDS011;11925;48.122;11.560;2023-03-07T07:11:30;18.10;;;9.45;;
23496;SDS011;11925;48.122;11.560;2023-03-07T07:13:59;17.90;;;9.45;;
23496;SDS011;11925;48.122;11.560;2023-03-07T07:16:28;14.95;;;9.30;;
23496;SDS011;11925;48.122;11.560;2023-03-07T07:18:59;15.57;;;9.52;;
23496;SDS011;11925;48.122;11.560;2023-03-07T07:21:27;18.45;;;9.77;;
23496;SDS011;11925;48.122;11.560;2023-03-07T07:23:57;16.33;;;9.77;;
23496;SDS011;11925;48.122;11.560;2023-03-07T07:26:26;17.25;;;9.40;;
23496;SDS011;11925;48.122;11.560;2023-03-07T07:28:56;15.02;;;8.50;;
23496;SDS011;11925;48.122;11.560;2023-03-07T07:31:25;13.75;;;8.32;;
23496;SDS011;11925;48.122;11.560;2023-03-07T07:33:53;14.88;;;9.00;;
23496;SDS011;11925;48.122;11.560;2023-03-07T07:36:25;20.33;;;9.48;;
23496;SDS011;11925;48.122;11.560;2023-03-07T07:38:53;17.27;;;8.90;;
23496;SDS011;11925;48.122;11.560;2023-03-07T07:41:24;16.52;;;9.25;;
23496;SDS011;11925;48.122;11.560;2023-03-07T07:43:54;17.35;;;8.93;;
23496;SDS011;11925;48.122;11.560;2023-03-07T07:46:41;16.50;;;9.07;;
23496;SDS011;11925;48.122;11.560;2023-03-07T07:49:09;16.92;;;8.85;;
23496;SDS011;11925;48.122;11.560;2023-03-07T07:51:38;17.95;;;9.10;;
23496;SDS011;11925;48.122;11.560;2023-03-07T07:54:06;14.70;;;8.85;;
23496;SDS011;11925;48.122;11.560;2023-03-07T07:56:36;15.07;;;9.15;;
23496;SDS011;11925;48.122;11.560;2023-03-07T07:59:05;15.00;;;8.40;;
23496;SDS011;11925;48.122;11.560;2023-03-07T08:01:33;15.15;;;8.18;;
23496;SDS011;11925;48.122;11.560;2023-03-07T08:04:02;12.77;;;7.97;;
23496;SDS011;11925;48.122;11.560;2023-03-07T08:06:30;14.75;;;8.02;;
23496;SDS011;11925;48.122;11.560;2023-03-07T08:08:58;14.18;;;7.75;;
23496;SDS011;11925;48.122;11.560;2023-03-07T08:11:27;16.20;;;8.48;;
23496;SDS011;11925;48.122;11.560;2023-03-07T08:13:57;15.07;;;7.82;;
23496;SDS011;11925;48.122;11.560;2023-03-07T08:16:25;12.00;;;7.25;;
23496;SDS011;11925;48.122;11.560;2023-03-07T08:18:54;15.27;;;8.07;;
23496;SDS011;11925;48.122;11.560;2023-03-07T08:21:24;16.63;;;7.88;;
23496;SDS011;11925;48.122;11.560;2023-03-07T08:23:52;12.85;;;7.30;;
23496;SDS011;11925;48.122;11.560;2023-03-07T08:26:21;14.07;;;7.50;;
23496;SDS011;11925;48.122;11.560;2023-03-07T08:28:49;11.98;;;6.97;;
23496;SDS011;11925;48.122;11.560;2023-03-07T08:31:20;14.15;;;7.30;;
23496;SDS011;11925;48.122;11.560;2023-03-07T08:33:50;16.02;;;6.85;;
23496;SDS011;11925;48.122;11.560;2023-03-07T08:36:19;13.85;;;6.78;;
23496;SDS011;11925;48.122;11.560;2023-03-07T08:38:48;14.45;;;7.75;;
23496;SDS011;11925;48.122;11.560;2023-03-07T08:41:18;16.05;;;6.43;;
23496;SDS011;11925;48.122;11.560;2023-03-07T08:43:48;14.73;;;6.85;;
23496;SDS011;11925;48.122;11.560;2023-03-07T08:46:16;13.13;;;6.82;;
23496;SDS011;11925;48.122;11.560;2023-03-07T08:48:46;13.65;;;7.25;;
23496;SDS011;11925;48.122;11.560;2023-03-07T08:51:15;10.35;;;6.07;;
23496;SDS011;11925;48.122;11.560;2023-03-07T08:53:44;9.98;;;5.57;;
23496;SDS011;11925;48.122;11.560;2023-03-07T08:56:14;13.50;;;6.30;;
23496;SDS011;11925;48.122;11.560;2023-03-07T08:59:01;14.05;;;6.60;;
23496;SDS011;11925;48.122;11.560;2023-03-07T09:01:29;10.80;;;5.82;;
23496;SDS011;11925;48.122;11.560;2023-03-07T09:03:59;10.45;;;6.10;;
23496;SDS011;11925;48.122;11.560;2023-03-07T09:06:28;12.43;;;6.60;;
23496;SDS011;11925;48.122;11.560;2023-03-07T09:08:56;13.90;;;6.55;;
23496;SDS011;11925;48.122;11.560;2023-03-07T09:11:24;17.30;;;6.45;;
23496;SDS011;11925;48.122;11.560;2023-03-07T09:13:53;13.23;;;6.32;;
23496;SDS011;11925;48.122;11.560;2023-03-07T09:16:21;15.73;;;6.55;;
23496;SDS011;11925;48.122;11.560;2023-03-07T09:18:50;12.23;;;6.88;;
23496;SDS011;11925;48.122;11.560;2023-03-07T09:21:19;9.63;;;5.82;;
23496;SDS011;11925;48.122;11.560;2023-03-07T09:23:48;18.17;;;6.95;;
23496;SDS011;11925;48.122;11.560;2023-03-07T09:26:16;12.30;;;6.22;;
23496;SDS011;11925;48.122;11.560;2023-03-07T09:28:44;11.20;;;6.28;;
23496;SDS011;11925;48.122;11.560;2023-03-07T09:31:13;14.25;;;6.60;;
23496;SDS011;11925;48.122;11.560;2023-03-07T09:33:43;12.23;;;6.38;;
23496;SDS011;11925;48.122;11.560;2023-03-07T09:36:13;10.90;;;6.10;;
23496;SDS011;11925;48.122;11.560;2023-03-07T09:38:44;11.07;;;6.07;;
23496;SDS011;11925;48.122;11.560;2023-03-07T09:41:17;12.00;;;6.85;;
23496;SDS011;11925;48.122;11.560;2023-03-07T09:44:02;11.15;;;6.35;;
23496;SDS011;11925;48.122;11.560;2023-03-07T09:47:08;11.13;;;6.50;;
23496;SDS011;11925;48.122;11.560;2023-03-07T09:49:48;11.88;;;6.07;;
23496;SDS011;11925;48.122;11.560;2023-03-07T09:52:18;12.68;;;6.80;;
23496;SDS011;11925;48.122;11.560;2023-03-07T09:54:51;13.05;;;6.95;;
23496;SDS011;11925;48.122;11.560;2023-03-07T09:57:23;14.27;;;6.60;;
23496;SDS011;11925;48.122;11.560;2023-03-07T09:59:55;16.40;;;6.95;;
23496;SDS011;11925;48.122;11.560;2023-03-07T10:02:38;16.70;;;7.50;;
23496;SDS011;11925;48.122;11.560;2023-03-07T10:05:20;12.18;;;6.93;;
23496;SDS011;11925;48.122;11.560;2023-03-07T10:07:54;12.90;;;7.07;;
23496;SDS011;11925;48.122;11.560;2023-03-07T10:10:24;13.38;;;7.75;;
23496;SDS011;11925;48.122;11.560;2023-03-07T10:13:03;14.25;;;7.15;;
23496;SDS011;11925;48.122;11.560;2023-03-07T10:15:49;16.98;;;7.28;;
23496;SDS011;11925;48.122;11.560;2023-03-07T10:18:23;14.05;;;6.78;;
23496;SDS011;11925;48.122;11.560;2023-03-07T10:21:02;13.85;;;6.85;;
23496;SDS011;11925;48.122;11.560;2023-03-07T10:23:50;14.90;;;6.38;;
23496;SDS011;11925;48.122;11.560;2023-03-07T10:26:36;14.50;;;7.07;;
23496;SDS011;11925;48.122;11.560;2023-03-07T10:29:11;13.88;;;7.03;;
23496;SDS011;11925;48.122;11.560;2023-03-07T10:31:41;15.27;;;7.53;;
23496;SDS011;11925;48.122;11.560;2023-03-07T10:34:15;14.80;;;7.25;;
23496;SDS011;11925;48.122;11.560;2023-03-07T10:36:57;15.93;;;7.32;;
23496;SDS011;11925;48.122;11.560;2023-03-07T10:39:36;14.48;;;7.07;;
23496;SDS011;11925;48.122;11.560;2023-03-07T10:42:11;14.38;;;7.30;;
23496;SDS011;11925;48.122;11.560;2023-03-07T10:47:14;13.55;;;7.38;;
23496;SDS011;11925;48.122;11.560;2023-03-07T10:49:47;15.77;;;7.47;;
23496;SDS011;11925;48.122;11.560;2023-03-07T10:52:23;15.02;;;8.13;;
23496;SDS011;11925;48.122;11.560;2023-03-07T10:58:16;15.57;;;7.97;;
23496;SDS011;11925;48.122;11.560;2023-03-07T11:00:56;12.85;;;7.78;;
23496;SDS011;11925;48.122;11.560;2023-03-07T11:03:28;15.35;;;7.30;;
23496;SDS011;11925;48.122;11.560;2023-03-07T11:09:21;15.63;;;6.38;;
23496;SDS011;11925;48.122;11.560;2023-03-07T11:11:53;14.70;;;7.90;;
23496;SDS011;11925;48.122;11.560;2023-03-07T11:14:25;16.40;;;7.30;;
23496;SDS011;11925;48.122;11.560;2023-03-07T11:16:55;15.05;;;7.30;;
23496;SDS011;11925;48.122;11.560;2023-03-07T11:19:31;17.98;;;8.05;;
23496;SDS011;11925;48.122;11.560;2023-03-07T11:22:15;13.95;;;8.05;;
23496;SDS011;11925;48.122;11.560;2023-03-07T11:24:46;14.00;;;7.70;;
23496;SDS011;11925;48.122;11.560;2023-03-07T11:27:20;15.93;;;7.78;;
23496;SDS011;11925;48.122;11.560;2023-03-07T11:32:55;19.10;;;7.90;;
23496;SDS011;11925;48.122;11.560;2023-03-07T11:35:45;12.85;;;7.63;;
23496;SDS011;11925;48.122;11.560;2023-03-07T11:38:27;14.73;;;7.43;;
23496;SDS011;11925;48.122;11.560;2023-03-07T11:41:04;18.25;;;7.82;;
23496;SDS011;11925;48.122;11.560;2023-03-07T11:43:40;15.38;;;7.28;;
23496;SDS011;11925;48.122;11.560;2023-03-07T11:46:20;14.80;;;7.60;;
23496;SDS011;11925;48.122;11.560;2023-03-07T11:48:55;15.90;;;7.38;;
23496;SDS011;11925;48.122;11.560;2023-03-07T11:51:43;13.40;;;7.43;;
23496;SDS011;11925;48.122;11.560;2023-03-07T11:54:23;14.02;;;7.70;;
23496;SDS011;11925;48.122;11.560;2023-03-07T11:56:58;16.85;;;7.18;;
23496;SDS011;11925;48.122;11.560;2023-03-07T11:59:36;16.15;;;8.20;;
23496;SDS011;11925;48.122;11.560;2023-03-07T12:02:32;12.52;;;7.18;;
23496;SDS011;11925;48.122;11.560;2023-03-07T12:05:18;15.80;;;8.10;;
23496;SDS011;11925;48.122;11.560;2023-03-07T12:08:14;14.30;;;7.63;;
23496;SDS011;11925;48.122;11.560;2023-03-07T12:11:02;19.40;;;7.68;;
23496;SDS011;11925;48.122;11.560;2023-03-07T12:13:42;15.20;;;7.73;;
23496;SDS011;11925;48.122;11.560;2023-03-07T12:16:22;14.63;;;7.28;;
23496;SDS011;11925;48.122;11.560;2023-03-07T12:19:01;16.02;;;8.60;;
23496;SDS011;11925;48.122;11.560;2023-03-07T12:21:46;13.70;;;7.53;;
23496;SDS011;11925;48.122;11.560;2023-03-07T12:24:38;15.88;;;8.00;;
23496;SDS011;11925;48.122;11.560;2023-03-07T12:27:13;17.23;;;10.38;;
23496;SDS011;11925;48.122;11.560;2023-03-07T12:29:52;15.00;;;9.48;;
23496;SDS011;11925;48.122;11.560;2023-03-07T12:32:24;16.85;;;8.60;;
23496;SDS011;11925;48.122;11.560;2023-03-07T12:34:56;13.27;;;8.10;;
23496;SDS011;11925;48.122;11.560;2023-03-07T12:37:31;15.10;;;8.15;;
23496;SDS011;11925;48.122;11.560;2023-03-07T12:40:08;13.88;;;8.13;;
23496;SDS011;11925;48.122;11.560;2023-03-07T12:42:47;13.55;;;7.38;;
23496;SDS011;11925;48.122;11.560;2023-03-07T12:45:20;16.90;;;8.15;;
23496;SDS011;11925;48.122;11.560;2023-03-07T12:47:58;16.25;;;8.50;;
23496;SDS011;11925;48.122;11.560;2023-03-07T12:50:35;12.15;;;7.40;;
23496;SDS011;11925;48.122;11.560;2023-03-07T12:53:18;13.27;;;7.85;;
23496;SDS011;11925;48.122;11.560;2023-03-07T12:55:54;17.95;;;7.75;;
23496;SDS011;11925;48.122;11.560;2023-03-07T12:58:30;14.43;;;7.38;;
23496;SDS011;11925;48.122;11.560;2023-03-07T13:01:08;14.38;;;7.40;;
23496;SDS011;11925;48.122;11.560;2023-03-07T13:03:41;14.95;;;7.97;;
23496;SDS011;11925;48.122;11.560;2023-03-07T13:06:17;13.45;;;7.65;;
23496;SDS011;11925;48.122;11.560;2023-03-07T13:08:48;20.88;;;7.90;;
23496;SDS011;11925;48.122;11.560;2023-03-07T13:13:50;15.25;;;8.07;;
23496;SDS011;11925;48.122;11.560;2023-03-07T13:16:34;12.77;;;7.22;;
23496;SDS011;11925;48.122;11.560;2023-03-07T13:31:24;17.10;;;7.70;;
23496;SDS011;11925;48.122;11.560;2023-03-07T13:49:33;13.68;;;7.68;;
23496;SDS011;11925;48.122;11.560;2023-03-07T13:52:21;12.15;;;7.50;;
23496;SDS011;11925;48.122;11.560;2023-03-07T13:55:17;13.55;;;7.38;;
23496;SDS011;11925;48.122;11.560;2023-03-07T13:57:49;15.63;;;7.43;;
23496;SDS011;11925;48.122;11.560;2023-03-07T14:00:22;12.75;;;7.18;;
23496;SDS011;11925;48.122;11.560;2023-03-07T14:02:59;15.63;;;7.93;;
23496;SDS011;11925;48.122;11.560;2023-03-07T14:05:30;13.98;;;6.60;;
23496;SDS011;11925;48.122;11.560;2023-03-07T14:08:01;12.70;;;6.97;;
23496;SDS011;11925;48.122;11.560;2023-03-07T14:10:29;13.55;;;6.63;;
23496;SDS011;11925;48.122;11.560;2023-03-07T14:13:02;14.50;;;7.82;;
23496;SDS011;11925;48.122;11.560;2023-03-07T14:16:11;13.55;;;6.72;;
23496;SDS011;11925;48.122;11.560;2023-03-07T14:18:54;13.40;;;7.03;;
23496;SDS011;11925;48.122;11.560;2023-03-07T14:21:33;12.15;;;7.00;;
23496;SDS011;11925;48.122;11.560;2023-03-07T14:24:17;12.75;;;6.70;;
23496;SDS011;11925;48.122;11.560;2023-03-07T14:27:17;12.88;;;7.10;;
23496;SDS011;11925;48.122;11.560;2023-03-07T14:29:46;12.57;;;7.13;;
23496;SDS011;11925;48.122;11.560;2023-03-07T14:32:21;12.60;;;7.13;;
23496;SDS011;11925;48.122;11.560;2023-03-07T14:34:51;13.15;;;7.10;;
23496;SDS011;11925;48.122;11.560;2023-03-07T14:37:21;14.82;;;7.03;;
23496;SDS011;11925;48.122;11.560;2023-03-07T14:40:00;12.43;;;6.70;;
23496;SDS011;11925;48.122;11.560;2023-03-07T14:42:42;13.98;;;7.10;;
23496;SDS011;11925;48.122;11.560;2023-03-07T14:45:21;13.82;;;6.85;;
23496;SDS011;11925;48.122;11.560;2023-03-07T14:48:02;14.10;;;7.13;;
23496;SDS011;11925;48.122;11.560;2023-03-07T14:50:51;12.05;;;6.85;;
23496;SDS011;11925;48.122;11.560;2023-03-07T14:53:20;13.52;;;7.20;;
23496;SDS011;11925;48.122;11.560;2023-03-07T14:55:52;13.13;;;6.72;;
23496;SDS011;11925;48.122;11.560;2023-03-07T14:58:22;12.57;;;7.20;;
23496;SDS011;11925;48.122;11.560;2023-03-07T15:00:56;12.93;;;6.72;;
23496;SDS011;11925;48.122;11.560;2023-03-07T15:03:26;11.77;;;7.22;;
23496;SDS011;11925;48.122;11.560;2023-03-07T15:05:56;13.15;;;6.47;;
23496;SDS011;11925;48.122;11.560;2023-03-07T15:08:28;13.13;;;7.35;;
23496;SDS011;11925;48.122;11.560;2023-03-07T15:10:59;12.68;;;6.90;;
23496;SDS011;11925;48.122;11.560;2023-03-07T15:13:34;12.75;;;6.97;;
23496;SDS011;11925;48.122;11.560;2023-03-07T15:16:05;13.43;;;7.43;;
23496;SDS011;11925;48.122;11.560;2023-03-07T15:18:39;12.00;;;6.97;;
23496;SDS011;11925;48.122;11.560;2023-03-07T15:21:12;12.63;;;6.97;;
23496;SDS011;11925;48.122;11.560;2023-03-07T15:23:49;15.73;;;7.00;;
23496;SDS011;11925;48.122;11.560;2023-03-07T15:26:21;16.60;;;7.85;;
23496;SDS011;11925;48.122;11.560;2023-03-07T15:28:57;12.07;;;6.88;;
23496;SDS011;11925;48.122;11.560;2023-03-07T15:31:27;13.23;;;6.72;;
23496;SDS011;11925;48.122;11.560;2023-03-07T15:34:18;12.68;;;6.18;;